NEODyS-2

Near Earth Objects - Dynamic Site
NEODyS ∴ Observatories ∴ Site 691 ∴ Obs & residuals
Contact »
691  ▹ 
OBSERVATIONS AND RESIDUALS

691-Steward Observatory, Kitt Peak-Spacewatch

Detections | Residuals | Detections & Residuals

[1-200] [201-400] [401-600] [601-800] [801-1000] [1001-1200] [1201-1400] [1401-1600] [1601-1800] [1801-2000] [2001-2200] [2201-2400] [2401-2600] [2601-2800] [2801-3000] [3001-3200] [3201-3400] [3401-3600] [3601-3800] [3801-4000] [4001-4200] [4201-4400] [4401-4600] [4601-4800] [4801-5000] [5001-5200] [5201-5400] [5401-5600] [5601-5800] [5801-6000] [6001-6200] [6201-6400] [6401-6600] [6601-6800] [6801-7000] [7001-7200] [7201-7400] [7401-7600] [7601-7800] [7801-8000] [8001-8200] [8201-8400] [8401-8600] [8601-8800] [8801-9000] [9001-9200] [9201-9400] [9401-9600] [9601-9800] [9801-10000] [10001-10200] [10201-10400] [10401-10600] [10601-10800] [10801-11000] [11001-11200] [11201-11400] [11401-11600] [11601-11800] [11801-12000] [12001-12200] [12201-12400] [12401-12600] [12601-12800] [12801-13000] [13001-13200] [13201-13400] [13401-13600] [13601-13800] [13801-14000] [14001-14200] [14201-14400] [14401-14600] [14601-14800] [14801-15000] [15001-15200] [15201-15400] [15401-15600] [15601-15800] [15801-16000] [16001-16200] [16201-16400] [16401-16600] [16601-16800] [16801-17000] [17001-17200] [17201-17400] [17401-17600] [17601-17800] [17801-18000] [18001-18200] [18201-18400] [18401-18600] [18601-18800] [18801-19000] [19001-19200] [19201-19400] [19401-19600] [19601-19800] [19801-20000] [20001-20200] [20201-20400] [20401-20600] [20601-20800] [20801-21000] [21001-21200] [21201-21400] [21401-21600] [21601-21800] [21801-22000] [22001-22200] [22201-22400] [22401-22600] [22601-22800] [22801-23000] [23001-23200] [23201-23400] [23401-23600] [23601-23800] [23801-24000] [24001-24200] [24201-24400] [24401-24600] [24601-24800] [24801-25000] [25001-25200] [25201-25400] [25401-25600] [25601-25800] [25801-26000] [26001-26200] [26201-26400] [26401-26600] [26601-26800] [26801-27000] [27001-27200] [27201-27400] [27401-27600] [27601-27800] [27801-28000] [28001-28200] [28201-28400] [28401-28600] [28601-28800] [28801-29000] [29001-29200] [29201-29400] [29401-29600] [29601-29800] [29801-30000] [30001-30200] [30201-30400] [30401-30600] [30601-30800] [30801-31000] [31001-31200] [31201-31400] [31401-31600] [31601-31800] [31801-32000] [32001-32200] [32201-32400] [32401-32600] [32601-32800] [32801-33000] [33001-33200] [33201-33400] [33401-33600] [33601-33800] [33801-34000] [34001-34200] [34201-34400] [34401-34600] [34601-34800] [34801-35000] [35001-35200] [35201-35400] [35401-35600] [35601-35800] [35801-36000] [36001-36200] [36201-36400] [36401-36600] [36601-36800] [36801-37000] [37001-37200] [37201-37400] [37401-37600] [37601-37800] [37801-38000] [38001-38200] [38201-38400] [38401-38600] [38601-38800] [38801-39000] [39001-39200] [39201-39400] [39401-39600] [39601-39800] [39801-40000] [40001-40200] [40201-40400] [40401-40600] [40601-40800] [40801-41000] [41001-41200] [41201-41400] [41401-41600] [41601-41800] [41801-42000] [42001-42200] [42201-42400] [42401-42600] [42601-42800] [42801-43000] [43001-43200] [43201-43400] [43401-43600] [43601-43800] [43801-44000] [44001-44200] [44201-44400] [44401-44600] [44601-44800] [44801-45000] [45001-45200] [45201-45400] [45401-45600] [45601-45800] [45801-46000] [46001-46200] [46201-46400] [46401-46600] [46601-46800] [46801-47000] [47001-47200] [47201-47400] [47401-47600] [47601-47800] [47801-48000] [48001-48200] [48201-48400] [48401-48600] [48601-48800] [48801-49000] [49001-49200] [49201-49400] [49401-49600] [49601-49800] [49801-50000] [50001-50200] [50201-50388]

Designation T Tech N Date Right Ascension Declination Apparent Magnitude Star Catalog Site code χ Used A Used M
yr-mo-day precision hr:min:sec precision rms F bias residual deg min sec precision rms F bias residual mag/col rms residual
2015TA145 O C m 2015-11-02.31445 1.000E-05 01:43:25.340 1.500E-01 0.500 F -0.245 -0.118 -12° 20' 30.40" 1.000E-01 0.500 F 0.124 -0.200 21.2 V 0.70 -0.31 o 691 0.47 Yes Yes
2015TO178 O C m 2015-11-02.33861 1.000E-05 01:44:54.380 1.500E-01 0.500 F -0.279 -0.306 -04° 48' 24.20" 1.000E-01 0.500 F 0.155 0.389 21.2 V 0.70 0.21 o 691 1.01 Yes Yes
2015TO178 O C m 2015-11-02.34272 1.000E-05 01:44:55.730 1.500E-01 0.500 F -0.279 1.307 -04° 48' 30.90" 1.000E-01 0.500 F 0.155 0.047 21.3 V 0.70 0.31 o 691 2.69 Yes Yes
2015TO178 O C m 2015-11-02.34683 1.000E-05 01:44:56.830 1.500E-01 0.500 F -0.279 -0.841 -04° 48' 37.40" 1.000E-01 0.500 F 0.155 -0.099 21.1 V 0.70 0.11 o 691 1.74 Yes Yes
2015TP23 O C m 2015-11-02.36332 1.000E-05 02:47:41.410 1.500E-01 0.500 F -0.244 -0.376 +16° 07' 07.30" 1.000E-01 0.500 F 0.327 -0.207 20.4 V 0.70 0.07 o 691 0.87 Yes Yes
2015TP23 O C m 2015-11-02.36719 1.000E-05 02:47:41.100 1.500E-01 0.500 F -0.244 -0.191 +16° 07' 06.90" 1.000E-01 0.500 F 0.327 -0.112 20.5 V 0.70 0.17 o 691 0.45 Yes Yes
2015TP23 O C m 2015-11-02.37130 1.000E-05 02:47:40.770 1.500E-01 0.500 F -0.244 -0.008 +16° 07' 06.00" 1.000E-01 0.500 F 0.327 -0.484 20.6 V 0.70 0.27 o 691 0.98 Yes Yes
2015TX178 O C m 2015-11-02.37690 1.000E-05 02:04:57.320 1.500E-01 0.500 F -0.286 -0.243 -08° 55' 09.90" 1.000E-01 0.500 F 0.213 -0.342 22.5 V 0.70 1.00 o 691 0.97 Yes Yes
2015TX178 O C m 2015-11-02.38240 1.000E-05 02:04:58.620 1.500E-01 0.500 F -0.286 -2.494 -08° 55' 18.20" 1.000E-01 0.500 F 0.213 0.306 22.1 V 0.70 0.60 o 691 4.50 No Yes
2015TX178 O C m 2015-11-02.38790 1.000E-05 02:05:00.050 1.500E-01 0.500 F -0.286 -2.848 -08° 55' 27.50" 1.000E-01 0.500 F 0.213 -0.055 21.0 V 0.70 -0.50 o 691 5.11 No Yes
2015TY178 O C m 2015-11-02.39243 1.000E-05 02:38:32.470 1.500E-01 0.500 F -0.126 0.521 -04° 16' 38.40" 1.000E-01 0.500 F 0.255 -0.638 21.0 V 0.70 0.43 o 691 1.66 Yes Yes
2015TY178 O C m 2015-11-02.39492 1.000E-05 02:38:32.460 1.500E-01 0.500 F -0.126 0.823 -04° 16' 43.30" 1.000E-01 0.500 F 0.255 0.044 20.7 V 0.70 0.13 o 691 1.66 Yes Yes
2015TY178 O C m 2015-11-02.39764 1.000E-05 02:38:32.340 1.500E-01 0.500 F -0.126 -0.482 -04° 16' 49.80" 1.000E-01 0.500 F 0.255 -0.358 20.9 V 0.70 0.33 o 691 1.21 Yes Yes
2015TN237 O C m 2015-11-02.41167 1.000E-05 04:24:17.290 1.500E-01 0.500 F -0.256 1.173 +12° 33' 58.90" 1.000E-01 0.500 F 0.273 -0.786 o 691 2.84 Yes No
2015TN237 O C m 2015-11-02.41624 1.000E-05 04:24:16.860 1.500E-01 0.500 F -0.256 0.695 +12° 33' 59.40" 1.000E-01 0.500 F 0.273 -0.488 21.3 V 0.70 -0.60 o 691 1.71 Yes Yes
2015TN237 O C m 2015-11-02.42104 1.000E-05 04:24:16.430 1.500E-01 0.500 F -0.256 0.509 +12° 33' 59.00" 1.000E-01 0.500 F 0.273 -1.099 o 691 2.43 Yes No
2002RQ25 O C H 2015-11-02.42605 1.000E-05 03:55:32.190 1.500E-01 0.500 F -0.136 -1.344 +28° 43' 59.40" 1.000E-01 0.500 F 0.186 -1.347 20.7 V 0.70 0.04 o 691 3.79 No Yes
2011CG2 O C 2015-11-02.42605 1.000E-05 03:54:12.820 1.500E-01 0.500 F -0.136 -0.571 +29° 18' 17.70" 1.000E-01 0.500 F 0.218 -0.100 20.6 V 0.70 -0.40 o 691 1.16 Yes Yes
2002RQ25 O C H 2015-11-02.42993 1.000E-05 03:55:31.680 1.500E-01 0.500 F -0.136 0.425 +28° 43' 59.60" 1.000E-01 0.500 F 0.186 -1.334 20.7 V 0.70 0.04 o 691 2.81 Yes Yes
2011CG2 O C 2015-11-02.42993 1.000E-05 03:54:12.350 1.500E-01 0.500 F -0.136 -0.353 +29° 18' 16.60" 1.000E-01 0.500 F 0.218 -0.249 20.3 V 0.70 -0.70 o 691 0.87 Yes Yes
2002RQ25 O C H 2015-11-02.43403 1.000E-05 03:55:30.960 1.500E-01 0.500 F -0.136 -0.091 +28° 44' 00.80" 1.000E-01 0.500 F 0.186 -0.326 20.8 V 0.70 0.14 o 691 0.68 Yes Yes
2011CG2 O C 2015-11-02.43403 1.000E-05 03:54:11.870 1.500E-01 0.500 F -0.136 0.092 +29° 18' 15.40" 1.000E-01 0.500 F 0.218 -0.439 20.1 V 0.70 -0.90 o 691 0.90 Yes Yes
2012XD112 O C m 2015-11-02.45464 1.000E-05 04:47:08.640 1.500E-01 0.500 F -0.145 0.092 +14° 30' 27.00" 1.000E-01 0.500 F 0.159 0.630 21.6 V 0.70 0.02 o 691 1.28 Yes Yes
2012XD112 O C m 2015-11-02.46078 1.000E-05 04:47:08.410 1.500E-01 0.500 F -0.145 -0.161 +14° 30' 24.70" 1.000E-01 0.500 F 0.159 -0.222 21.6 V 0.70 0.02 o 691 0.55 Yes Yes
2012XD112 O C m 2015-11-02.46714 1.000E-05 04:47:08.230 1.500E-01 0.500 F -0.145 0.416 +14° 30' 23.30" 1.000E-01 0.500 F 0.159 -0.116 21.7 V 0.70 0.12 o 691 0.87 Yes Yes
2015UY66 O C m 2015-11-02.50723 1.000E-05 05:37:31.310 1.500E-01 0.500 F -0.094 0.048 -11° 54' 05.20" 1.000E-01 0.500 F -0.016 0.694 19.5 V 0.70 -0.45 o 691 1.42 Yes Yes
2015UY66 O C m 2015-11-02.50972 1.000E-05 05:37:32.000 1.500E-01 0.500 F -0.094 -0.022 -11° 54' 13.90" 1.000E-01 0.500 F -0.016 0.292 20.1 V 0.70 0.15 o 691 0.60 Yes Yes
2015UY66 O C m 2015-11-02.51244 1.000E-05 05:37:32.740 1.500E-01 0.500 F -0.094 -0.303 -11° 54' 23.40" 1.000E-01 0.500 F -0.016 -0.143 20.3 V 0.70 0.35 o 691 0.68 Yes Yes
2009FD O C m 2015-11-03.09568 1.000E-05 22:36:13.540 1.500E-01 0.500 F -0.051 -0.658 +18° 47' 29.50" 1.000E-01 0.500 F 0.292 -0.284 18.3 V 0.70 0.18 o 691 1.43 Yes Yes
2009FD O C m 2015-11-03.10271 1.000E-05 22:36:24.190 1.500E-01 0.500 F -0.051 0.044 +18° 47' 40.20" 1.000E-01 0.500 F 0.292 -0.107 18.3 V 0.70 0.18 o 691 0.24 Yes Yes
2009FD O C m 2015-11-03.10427 1.000E-05 22:36:26.540 1.500E-01 0.500 F -0.051 0.050 +18° 47' 42.50" 1.000E-01 0.500 F 0.292 -0.125 18.3 V 0.70 0.18 o 691 0.27 Yes Yes
2015VV O C m 2015-11-03.13294 1.000E-05 23:23:49.920 1.500E-01 0.500 F -0.124 0.610 -13° 18' 46.60" 1.000E-01 0.500 F 0.295 -0.481 20.3 V 0.70 0.69 o 691 1.57 Yes Yes
2015VV O C m 2015-11-03.13532 1.000E-05 23:23:50.910 1.500E-01 0.500 F -0.124 -0.045 -13° 18' 53.70" 1.000E-01 0.500 F 0.295 -0.449 19.8 V 0.70 0.19 o 691 0.91 Yes Yes
2015VV O C m 2015-11-03.13748 1.000E-05 23:23:51.840 1.500E-01 0.500 F -0.124 -0.173 -13° 19' 00.00" 1.000E-01 0.500 F 0.295 -0.284 20.0 V 0.70 0.39 o 691 0.67 Yes Yes
2015QH O C m 2015-11-03.14002 1.000E-05 23:32:32.730 1.500E-01 0.500 F -0.238 0.529 -14° 41' 25.40" 1.000E-01 0.500 F 0.265 -0.403 20.4 V 0.70 -0.34 o 691 1.34 Yes Yes
2015QH O C m 2015-11-03.14297 1.000E-05 23:32:33.560 1.500E-01 0.500 F -0.238 0.605 -14° 41' 21.90" 1.000E-01 0.500 F 0.265 0.359 20.2 V 0.70 -0.54 o 691 1.42 Yes Yes
2015QH O C m 2015-11-03.14594 1.000E-05 23:32:34.340 1.500E-01 0.500 F -0.238 -0.123 -14° 41' 19.60" 1.000E-01 0.500 F 0.265 -0.100 20.2 V 0.70 -0.54 o 691 0.32 Yes Yes
2015PS O C H 2015-11-03.15004 1.000E-05 23:52:50.530 1.500E-01 0.500 F -0.032 -0.122 +30° 05' 52.20" 1.000E-01 0.500 F 0.254 -0.155 19.6 V 0.70 0.13 o 691 0.40 Yes Yes
2015PS O C H 2015-11-03.15257 1.000E-05 23:52:50.990 1.500E-01 0.500 F -0.032 -0.152 +30° 05' 54.10" 1.000E-01 0.500 F 0.254 -0.045 19.7 V 0.70 0.23 o 691 0.32 Yes Yes
2015PS O C H 2015-11-03.15511 1.000E-05 23:52:51.480 1.500E-01 0.500 F -0.032 0.185 +30° 05' 55.80" 1.000E-01 0.500 F 0.254 -0.139 19.6 V 0.70 0.13 o 691 0.47 Yes Yes
2015VW O C m 2015-11-03.15998 1.000E-05 00:23:06.220 1.500E-01 0.500 F -0.245 -0.003 -04° 07' 15.50" 1.000E-01 0.500 F 0.264 -0.340 20.5 V 0.70 0.09 o 691 0.70 Yes Yes
2015VW O C m 2015-11-03.16269 1.000E-05 00:23:06.040 1.500E-01 0.500 F -0.245 0.549 -04° 07' 03.30" 1.000E-01 0.500 F 0.264 -0.293 20.1 V 0.70 -0.31 o 691 1.28 Yes Yes
2015VW O C m 2015-11-03.16518 1.000E-05 00:23:05.810 1.500E-01 0.500 F -0.245 0.091 -04° 06' 52.20" 1.000E-01 0.500 F 0.264 -0.359 20.7 V 0.70 0.29 o 691 0.76 Yes Yes
2015MU59 O C H 2015-11-03.19020 1.000E-05 00:52:33.300 1.500E-01 0.500 F -0.369 -0.394 -10° 55' 47.50" 1.000E-01 0.500 F 0.031 -0.304 20.1 V 0.70 -0.30 o 691 1.00 Yes Yes
2015MU59 O C H 2015-11-03.19520 1.000E-05 00:52:33.500 1.500E-01 0.500 F -0.369 -0.203 -10° 55' 44.60" 1.000E-01 0.500 F 0.031 -0.691 20.4 V 0.70 0.00 o 691 1.45 Yes Yes
2015MU59 O C H 2015-11-03.19996 1.000E-05 00:52:33.700 1.500E-01 0.500 F -0.369 0.123 -10° 55' 40.70" 1.000E-01 0.500 F 0.031 0.077 20.6 V 0.70 0.20 o 691 0.29 Yes Yes
2015VH1 O C m 2015-11-03.20334 1.000E-05 01:00:59.510 1.500E-01 0.500 F -0.210 -1.179 +05° 32' 29.90" 1.000E-01 0.500 F 0.295 -0.359 20.0 V 0.70 -0.33 o 691 2.51 Yes Yes
2015VH1 O C m 2015-11-03.20538 1.000E-05 01:01:02.910 1.500E-01 0.500 F -0.210 -0.931 +05° 32' 44.10" 1.000E-01 0.500 F 0.295 -0.369 19.9 V 0.70 -0.43 o 691 2.04 Yes Yes
2015VH1 O C m 2015-11-03.20717 1.000E-05 01:01:05.940 1.500E-01 0.500 F -0.210 -0.013 +05° 32' 56.60" 1.000E-01 0.500 F 0.295 -0.333 20.5 V 0.70 0.17 o 691 0.68 Yes Yes
2015TE323 O C m 2015-11-03.26438 1.000E-05 01:34:46.380 1.500E-01 0.500 F -0.257 0.297 +04° 40' 33.30" 1.000E-01 0.500 F 0.222 -0.266 21.3 V 0.70 0.24 o 691 0.80 Yes Yes
2015TE323 O C m 2015-11-03.26795 1.000E-05 01:34:46.090 1.500E-01 0.500 F -0.257 0.405 +04° 40' 29.60" 1.000E-01 0.500 F 0.222 -1.390 o 691 2.91 Yes No
2015TE323 O C m 2015-11-03.27130 1.000E-05 01:34:45.790 1.500E-01 0.500 F -0.257 0.089 +04° 40' 27.80" 1.000E-01 0.500 F 0.222 -0.774 o 691 1.56 Yes No
2015TG238 O C m 2015-11-03.27416 1.000E-05 01:53:56.700 1.500E-01 0.500 F -0.137 -0.686 +08° 23' 04.80" 1.000E-01 0.500 F 0.233 -0.375 20.2 V 0.70 0.06 o 691 1.66 Yes Yes
2015TG238 O C m 2015-11-03.27635 1.000E-05 01:53:57.140 1.500E-01 0.500 F -0.137 0.207 +08° 22' 49.20" 1.000E-01 0.500 F 0.233 -0.356 20.5 V 0.70 0.36 o 691 0.90 Yes Yes
2015TG238 O C m 2015-11-03.27835 1.000E-05 01:53:57.490 1.500E-01 0.500 F -0.137 0.252 +08° 22' 35.20" 1.000E-01 0.500 F 0.233 -0.092 20.7 V 0.70 0.56 o 691 0.57 Yes Yes
2015UK51 O C m 2015-11-03.30360 1.000E-05 02:32:31.300 1.500E-01 0.500 F -0.116 -0.154 +15° 57' 24.60" 1.000E-01 0.500 F 0.362 0.018 21.4 V 0.70 -0.25 o 691 0.32 Yes Yes
2015UK51 O C m 2015-11-03.30840 1.000E-05 02:32:30.760 1.500E-01 0.500 F -0.116 -0.502 +15° 57' 32.10" 1.000E-01 0.500 F 0.362 -0.897 21.6 V 0.70 -0.05 o 691 2.13 Yes Yes
2015UK51 O C m 2015-11-03.31320 1.000E-05 02:32:30.290 1.500E-01 0.500 F -0.116 0.157 +15° 57' 39.70" 1.000E-01 0.500 F 0.362 -1.700 o 691 3.30 No No
2015TX346 O C H 2015-11-03.33430 1.000E-05 02:16:44.690 1.500E-01 0.500 F -0.318 1.062 -07° 23' 47.20" 1.000E-01 0.500 F 0.041 -1.454 o 691 3.37 No No
2015TX346 O C H 2015-11-03.33743 1.000E-05 02:16:44.530 1.500E-01 0.500 F -0.318 -0.140 -07° 23' 42.10" 1.000E-01 0.500 F 0.041 -0.674 o 691 1.47 Yes No
2015TX346 O C H 2015-11-03.34034 1.000E-05 02:16:44.490 1.500E-01 0.500 F -0.318 0.359 -07° 23' 38.70" 1.000E-01 0.500 F 0.041 -1.291 o 691 2.85 Yes No
2015UE67 O C H 2015-11-03.34369 1.000E-05 03:18:42.740 1.500E-01 0.500 F -0.136 -0.104 +02° 19' 13.70" 1.000E-01 0.500 F 0.312 -0.532 o 691 1.09 Yes No
2015UE67 O C H 2015-11-03.34737 1.000E-05 03:18:42.620 1.500E-01 0.500 F -0.136 0.762 +02° 19' 17.20" 1.000E-01 0.500 F 0.312 -0.464 o 691 1.80 Yes No
2015UE67 O C H 2015-11-03.35105 1.000E-05 03:18:42.360 1.500E-01 0.500 F -0.136 -0.471 +02° 19' 20.20" 1.000E-01 0.500 F 0.312 -0.896 21.0 V 0.70 0.02 o 691 2.04 Yes Yes
2001SG10 O C H 2015-11-03.39342 1.000E-05 02:59:20.350 1.500E-01 0.500 F -0.312 -0.385 +08° 37' 30.60" 1.000E-01 0.500 F 0.303 -0.088 20.0 V 0.70 0.10 o 691 0.80 Yes Yes
2001SG10 O C H 2015-11-03.39596 1.000E-05 02:59:20.080 1.500E-01 0.500 F -0.312 0.909 +08° 37' 28.10" 1.000E-01 0.500 F 0.303 -0.774 20.0 V 0.70 0.10 o 691 2.40 Yes Yes
2001SG10 O C H 2015-11-03.39850 1.000E-05 02:59:19.610 1.500E-01 0.500 F -0.312 -0.765 +08° 37' 26.60" 1.000E-01 0.500 F 0.303 -0.458 o 691 1.80 Yes No
2015UC67 O C H 2015-11-03.40105 1.000E-05 03:50:04.080 1.500E-01 0.500 F -0.107 0.728 +17° 46' 19.50" 1.000E-01 0.500 F 0.195 -0.392 o 691 1.66 Yes No
2015UC67 O C H 2015-11-03.40358 1.000E-05 03:50:03.730 1.500E-01 0.500 F -0.107 -0.306 +17° 46' 14.80" 1.000E-01 0.500 F 0.195 0.137 20.2 V 0.70 0.12 o 691 0.67 Yes Yes
2015UC67 O C H 2015-11-03.40613 1.000E-05 03:50:03.420 1.500E-01 0.500 F -0.107 -0.738 +17° 46' 08.60" 1.000E-01 0.500 F 0.195 -0.792 20.3 V 0.70 0.22 o 691 2.17 Yes Yes
2015RJ83 O C H 2015-11-03.44221 1.000E-05 05:56:05.640 1.500E-01 0.500 F -0.162 0.731 -17° 50' 57.30" 1.000E-01 0.500 F -0.037 -0.993 o 691 2.48 Yes No
2015RJ83 O C H 2015-11-03.44812 1.000E-05 05:56:05.570 1.500E-01 0.500 F -0.162 -0.209 -17° 51' 00.60" 1.000E-01 0.500 F -0.037 -0.128 o 691 0.49 Yes No
2015RJ83 O C H 2015-11-03.45381 1.000E-05 05:56:05.660 1.500E-01 0.500 F -0.162 1.134 -17° 51' 05.50" 1.000E-01 0.500 F -0.037 -1.027 o 691 3.08 Yes No
2015UY66 O C m 2015-11-03.45724 1.000E-05 05:42:11.270 1.500E-01 0.500 F 0.001 -0.267 -12° 48' 05.40" 1.000E-01 0.500 F 0.004 -0.071 20.1 V 0.70 0.20 o 691 0.56 Yes Yes
2015UY66 O C m 2015-11-03.46001 1.000E-05 05:42:12.450 1.500E-01 0.500 F 0.001 5.204 -12° 48' 11.90" 1.000E-01 0.500 F 0.004 3.034 19.5 V 0.70 -0.40 o 691 11.86 No Yes
2015UY66 O C m 2015-11-03.46278 1.000E-05 05:42:12.910 1.500E-01 0.500 F 0.001 0.140 -12° 48' 24.70" 1.000E-01 0.500 F 0.004 -0.162 20.1 V 0.70 0.20 o 691 0.44 Yes Yes
2015TA206 O C m 2015-11-03.47501 1.000E-05 05:00:29.730 1.500E-01 0.500 F -0.258 -1.672 -10° 24' 22.30" 1.000E-01 0.500 F 0.091 1.726 o 691 4.17 No No
2015TA206 O C m 2015-11-03.47819 1.000E-05 05:00:30.950 1.500E-01 0.500 F -0.258 -0.402 -10° 24' 33.10" 1.000E-01 0.500 F 0.091 0.292 o 691 1.22 Yes No
2015TA206 O C m 2015-11-03.48113 1.000E-05 05:00:32.020 1.500E-01 0.500 F -0.258 -0.091 -10° 24' 42.80" 1.000E-01 0.500 F 0.091 -0.754 o 691 1.70 Yes No
2015TB179 O C 2015-11-03.49717 1.000E-05 04:39:43.010 1.500E-01 0.500 F -0.184 -0.547 -03° 30' 20.70" 1.000E-01 0.500 F -0.086 0.123 19.7 V 0.70 -0.32 o 691 1.12 Yes Yes
2015TB179 O C 2015-11-03.49999 1.000E-05 04:39:43.310 1.500E-01 0.500 F -0.184 -0.354 -03° 30' 20.30" 1.000E-01 0.500 F -0.086 0.293 20.0 V 0.70 -0.02 o 691 0.92 Yes Yes
2015TB179 O C 2015-11-03.50282 1.000E-05 04:39:43.600 1.500E-01 0.500 F -0.184 -0.330 -03° 30' 20.00" 1.000E-01 0.500 F -0.086 0.363 19.9 V 0.70 -0.12 o 691 0.98 Yes Yes
2015MT96 O C 2015-11-06.08902 1.000E-05 20:55:39.640 1.500E-01 0.500 F 0.065 0.092 -24° 45' 46.70" 1.000E-01 0.500 F 0.384 0.449 20.3 V 0.70 0.37 o 691 0.93 Yes Yes
2015MT96 O C 2015-11-06.09202 1.000E-05 20:55:40.710 1.500E-01 0.500 F 0.065 -0.545 -24° 45' 47.40" 1.000E-01 0.500 F 0.384 -0.135 20.0 V 0.70 0.07 o 691 1.14 Yes Yes
2015MT96 O C 2015-11-06.09502 1.000E-05 20:55:41.870 1.500E-01 0.500 F 0.065 0.043 -24° 45' 47.50" 1.000E-01 0.500 F 0.384 -0.123 20.3 V 0.70 0.37 o 691 0.26 Yes Yes
2015QH O C 2015-11-06.10817 1.000E-05 23:46:11.970 1.500E-01 0.500 F -0.204 -0.313 -13° 53' 56.50" 1.000E-01 0.500 F 0.299 -0.343 20.3 V 0.70 -0.58 o 691 0.93 Yes Yes
2015QH O C 2015-11-06.11112 1.000E-05 23:46:12.710 1.500E-01 0.500 F -0.204 -0.514 -13° 53' 54.10" 1.000E-01 0.500 F 0.299 -0.800 20.1 V 0.70 -0.78 o 691 1.91 Yes Yes
2015QH O C 2015-11-06.11407 1.000E-05 23:46:13.510 1.500E-01 0.500 F -0.204 0.162 -13° 53' 50.30" 1.000E-01 0.500 F 0.299 0.141 20.3 V 0.70 -0.58 o 691 0.43 Yes Yes
2015VG1 O C m 2015-11-06.14496 1.000E-05 00:04:37.250 1.500E-01 0.500 F -0.263 0.133 -09° 54' 04.00" 1.000E-01 0.500 F 0.225 -0.022 20.3 V 0.70 -0.01 o 691 0.28 Yes Yes
2015VG1 O C m 2015-11-06.14726 1.000E-05 00:04:37.220 1.500E-01 0.500 F -0.263 -0.142 -09° 54' 45.50" 1.000E-01 0.500 F 0.225 0.781 20.2 V 0.70 -0.11 o 691 1.71 Yes Yes
2015VG1 O C m 2015-11-06.14956 1.000E-05 00:04:37.210 1.500E-01 0.500 F -0.263 -0.117 -09° 55' 27.60" 1.000E-01 0.500 F 0.225 0.982 20.4 V 0.70 0.09 o 691 2.14 Yes Yes
2015PR O C 2015-11-06.16828 1.000E-05 00:52:36.050 1.500E-01 0.500 F -0.377 -0.172 -10° 01' 31.00" 1.000E-01 0.500 F 0.143 0.078 19.9 V 0.70 -0.13 o 691 0.38 Yes Yes
2015MU59 O C 2015-11-06.16828 1.000E-05 00:54:46.580 1.500E-01 0.500 F -0.275 -0.203 -10° 21' 57.70" 1.000E-01 0.500 F 0.056 -0.505 20.6 V 0.70 0.05 o 691 1.09 Yes Yes
2015PR O C 2015-11-06.17290 1.000E-05 00:52:36.440 1.500E-01 0.500 F -0.377 -0.239 -10° 01' 28.00" 1.000E-01 0.500 F 0.143 -0.228 19.9 V 0.70 -0.13 o 691 0.67 Yes Yes
2015MU59 O C 2015-11-06.17290 1.000E-05 00:54:46.780 1.500E-01 0.500 F -0.275 -0.002 -10° 21' 54.10" 1.000E-01 0.500 F 0.056 -0.120 20.6 V 0.70 0.05 o 691 0.24 Yes Yes
2015PR O C 2015-11-06.17751 1.000E-05 00:52:36.840 1.500E-01 0.500 F -0.377 -0.141 -10° 01' 24.60" 1.000E-01 0.500 F 0.143 -0.130 20.0 V 0.70 -0.03 o 691 0.39 Yes Yes
2015MU59 O C 2015-11-06.17751 1.000E-05 00:54:47.120 1.500E-01 0.500 F -0.275 2.275 -10° 21' 52.00" 1.000E-01 0.500 F 0.056 -1.229 20.0 V 0.70 -0.55 o 691 5.13 No Yes
2015TE323 O C m 2015-11-06.20086 1.000E-05 01:30:51.570 1.500E-01 0.500 F -0.230 -0.083 +04° 05' 37.10" 1.000E-01 0.500 F 0.285 -0.507 21.8 V 0.70 0.69 o 691 1.03 Yes Yes
2015TE323 O C m 2015-11-06.20380 1.000E-05 01:30:51.370 1.500E-01 0.500 F -0.230 0.513 +04° 05' 34.60" 1.000E-01 0.500 F 0.285 -0.937 21.4 V 0.70 0.29 o 691 2.14 Yes Yes
2015TE323 O C m 2015-11-06.20675 1.000E-05 01:30:51.120 1.500E-01 0.500 F -0.230 0.374 +04° 05' 33.80" 1.000E-01 0.500 F 0.285 0.341 21.8 V 0.70 0.69 o 691 1.02 Yes Yes
2015TM238 O C m 2015-11-06.23393 1.000E-05 01:57:25.690 1.500E-01 0.500 F -0.183 0.510 +25° 22' 44.30" 1.000E-01 0.500 F 0.247 -0.381 20.7 V 0.70 -0.69 o 691 1.29 Yes Yes
2015TM238 O C m 2015-11-06.23780 1.000E-05 01:57:25.630 1.500E-01 0.500 F -0.183 0.359 +25° 22' 48.00" 1.000E-01 0.500 F 0.247 -0.499 20.8 V 0.70 -0.59 o 691 1.25 Yes Yes
2015TM238 O C m 2015-11-06.24169 1.000E-05 01:57:25.600 1.500E-01 0.500 F -0.183 0.621 +25° 22' 51.70" 1.000E-01 0.500 F 0.247 -0.626 21.3 V 0.70 -0.09 o 691 1.79 Yes Yes
2015TO178 O C 2015-11-06.24633 1.000E-05 02:08:25.060 1.500E-01 0.500 F -0.293 -0.723 -06° 30' 58.10" 1.000E-01 0.500 F 0.122 0.160 20.5 V 0.70 -0.34 o 691 1.52 Yes Yes
2015TO178 O C 2015-11-06.24898 1.000E-05 02:08:26.000 1.500E-01 0.500 F -0.293 -1.134 -06° 31' 02.20" 1.000E-01 0.500 F 0.122 0.247 20.3 V 0.70 -0.54 o 691 2.38 Yes Yes
2015TO178 O C 2015-11-06.25187 1.000E-05 02:08:27.120 1.500E-01 0.500 F -0.293 -0.166 -06° 31' 07.20" 1.000E-01 0.500 F 0.122 -0.189 20.6 V 0.70 -0.24 o 691 0.52 Yes Yes
2015TH323 O C H 2015-11-06.26151 1.000E-05 02:08:26.120 1.500E-01 0.500 F -0.224 -0.225 -07° 33' 37.50" 1.000E-01 0.500 F 0.162 0.341 20.5 V 0.70 -0.69 o 691 0.82 Yes Yes
2015TH323 O C H 2015-11-06.26669 1.000E-05 02:08:25.920 1.500E-01 0.500 F -0.224 0.790 -07° 33' 37.20" 1.000E-01 0.500 F 0.162 -0.139 20.7 V 0.70 -0.49 o 691 1.61 Yes Yes
2015TH323 O C H 2015-11-06.27046 1.000E-05 02:08:25.650 1.500E-01 0.500 F -0.224 -0.321 -07° 33' 36.40" 1.000E-01 0.500 F 0.162 0.093 20.9 V 0.70 -0.29 o 691 0.67 Yes Yes
2015TW237 O C H 2015-11-06.28959 1.000E-05 02:24:44.220 1.500E-01 0.500 F -0.266 0.525 +07° 29' 54.50" 1.000E-01 0.500 F 0.363 -0.433 20.3 V 0.70 0.28 o 691 1.37 Yes Yes
2015TW237 O C H 2015-11-06.29212 1.000E-05 02:24:43.920 1.500E-01 0.500 F -0.266 0.042 +07° 30' 00.50" 1.000E-01 0.500 F 0.363 -0.171 20.4 V 0.70 0.38 o 691 0.36 Yes Yes
2015TW237 O C H 2015-11-06.29465 1.000E-05 02:24:43.630 1.500E-01 0.500 F -0.266 -0.293 +07° 30' 06.40" 1.000E-01 0.500 F 0.363 -0.009 20.2 V 0.70 0.18 o 691 0.59 Yes Yes
2015UH51 O C 2015-11-06.33110 1.000E-05 03:09:03.830 1.500E-01 0.500 F -0.076 -0.128 +06° 31' 42.60" 1.000E-01 0.500 F 0.314 -0.031 20.7 V 0.70 -0.40 o 691 0.26 Yes Yes
2015UH51 O C 2015-11-06.33405 1.000E-05 03:09:03.270 1.500E-01 0.500 F -0.076 -0.307 +06° 31' 44.60" 1.000E-01 0.500 F 0.314 -0.213 20.9 V 0.70 -0.20 o 691 0.75 Yes Yes
2015UH51 O C 2015-11-06.33700 1.000E-05 03:09:02.730 1.500E-01 0.500 F -0.076 -0.189 +06° 31' 46.90" 1.000E-01 0.500 F 0.314 -0.095 20.8 V 0.70 -0.30 o 691 0.42 Yes Yes
2015UE67 O C H 2015-11-06.34027 1.000E-05 03:16:39.180 1.500E-01 0.500 F -0.136 -0.165 +03° 06' 19.20" 1.000E-01 0.500 F 0.283 -0.140 21.1 V 0.70 0.10 o 691 0.44 Yes Yes
2015UE67 O C H 2015-11-06.34391 1.000E-05 03:16:39.000 1.500E-01 0.500 F -0.136 -0.158 +03° 06' 22.40" 1.000E-01 0.500 F 0.283 -0.399 21.0 V 0.70 0.00 o 691 0.87 Yes Yes
2015UE67 O C H 2015-11-06.34756 1.000E-05 03:16:38.840 1.500E-01 0.500 F -0.136 0.154 +03° 06' 26.40" 1.000E-01 0.500 F 0.283 0.132 21.2 V 0.70 0.20 o 691 0.41 Yes Yes
2015UC67 O C 2015-11-06.36200 1.000E-05 03:44:48.910 1.500E-01 0.500 F -0.277 -0.193 +16° 03' 40.00" 1.000E-01 0.500 F 0.228 0.113 19.8 V 0.70 -0.17 o 691 0.45 Yes Yes
2015UC67 O C 2015-11-06.36453 1.000E-05 03:44:48.620 1.500E-01 0.500 F -0.277 -0.207 +16° 03' 34.40" 1.000E-01 0.500 F 0.228 -0.170 19.8 V 0.70 -0.17 o 691 0.53 Yes Yes
2015UC67 O C 2015-11-06.36707 1.000E-05 03:44:48.330 1.500E-01 0.500 F -0.277 -0.204 +16° 03' 29.20" 1.000E-01 0.500 F 0.228 -0.031 19.9 V 0.70 -0.07 o 691 0.41 Yes Yes
2015UT52 O C H 2015-11-06.43271 1.000E-05 04:26:05.660 1.500E-01 0.500 F -0.048 0.958 +27° 35' 30.60" 1.000E-01 0.500 F 0.293 -0.899 o 691 2.66 Yes No
2015UT52 O C H 2015-11-06.43541 1.000E-05 04:26:05.910 1.500E-01 0.500 F -0.048 0.310 +27° 35' 28.70" 1.000E-01 0.500 F 0.293 -0.641 o 691 1.44 Yes No
2015UT52 O C H 2015-11-06.43812 1.000E-05 04:26:06.180 1.500E-01 0.500 F -0.048 -0.089 +27° 35' 27.00" 1.000E-01 0.500 F 0.293 -0.171 19.6 V 0.70 0.04 o 691 0.39 Yes Yes
2015TB179 O C 2015-11-06.44186 1.000E-05 04:45:02.840 1.500E-01 0.500 F -0.176 -0.106 -03° 24' 07.80" 1.000E-01 0.500 F -0.022 0.000 19.8 V 0.70 -0.10 o 691 0.21 Yes Yes
2015TB179 O C 2015-11-06.44472 1.000E-05 04:45:03.120 1.500E-01 0.500 F -0.176 -0.168 -03° 24' 07.10" 1.000E-01 0.500 F -0.022 0.177 19.7 V 0.70 -0.20 o 691 0.49 Yes Yes
2015TB179 O C 2015-11-06.44755 1.000E-05 04:45:03.390 1.500E-01 0.500 F -0.176 -0.339 -03° 24' 06.60" 1.000E-01 0.500 F -0.022 0.159 19.6 V 0.70 -0.30 o 691 0.75 Yes Yes
2015UR51 O C m 2015-11-06.49415 1.000E-05 08:36:24.790 1.500E-01 0.500 F 0.051 0.327 -03° 20' 48.00" 1.000E-01 0.500 F 0.058 -0.747 20.5 V 0.70 0.16 o 691 1.67 Yes Yes
2015UR51 O C m 2015-11-06.49692 1.000E-05 08:36:24.980 1.500E-01 0.500 F 0.051 0.335 -03° 21' 00.70" 1.000E-01 0.500 F 0.058 -1.156 o 691 2.46 Yes No
2005EW169 O C 2015-11-06.50269 1.000E-05 09:34:12.880 1.500E-01 0.500 F 0.087 -0.258 +12° 52' 35.90" 1.000E-01 0.500 F 0.226 0.215 20.1 V 0.70 -0.56 o 691 0.69 Yes Yes
2005EW169 O C 2015-11-06.50545 1.000E-05 09:34:13.690 1.500E-01 0.500 F 0.087 -0.259 +12° 52' 30.80" 1.000E-01 0.500 F 0.226 -0.317 20.1 V 0.70 -0.56 o 691 0.83 Yes Yes
2005EW169 O C 2015-11-06.50822 1.000E-05 09:34:14.500 1.500E-01 0.500 F 0.087 -0.301 +12° 52' 26.50" 1.000E-01 0.500 F 0.226 -0.031 20.3 V 0.70 -0.36 o 691 0.62 Yes Yes
2015OL35 O C 2015-11-06.51085 1.000E-05 10:09:48.230 1.500E-01 0.500 F 0.115 -0.128 +00° 47' 47.40" 1.000E-01 0.500 F 0.109 0.106 19.3 V 0.70 0.29 o 691 0.33 Yes Yes
2015OL35 O C 2015-11-06.51280 1.000E-05 10:09:48.730 1.500E-01 0.500 F 0.115 -0.247 +00° 47' 46.30" 1.000E-01 0.500 F 0.109 0.035 19.2 V 0.70 0.19 o 691 0.50 Yes Yes
2015OL35 O C 2015-11-06.51480 1.000E-05 10:09:49.310 1.500E-01 0.500 F 0.115 0.640 +00° 47' 45.40" 1.000E-01 0.500 F 0.109 0.189 19.2 V 0.70 0.19 o 691 1.34 Yes Yes
2003UL12 O C 2015-11-06.51877 1.000E-05 09:20:25.020 1.500E-01 0.500 F 0.045 -0.118 -16° 27' 49.80" 1.000E-01 0.500 F -0.128 0.152 18.9 V 0.70 0.13 o 691 0.38 Yes Yes
2003UL12 O C 2015-11-06.52050 1.000E-05 09:20:25.580 1.500E-01 0.500 F 0.045 -0.131 -16° 27' 53.40" 1.000E-01 0.500 F -0.128 0.076 19.0 V 0.70 0.23 o 691 0.30 Yes Yes
2003UL12 O C 2015-11-06.52222 1.000E-05 09:20:26.130 1.500E-01 0.500 F 0.045 -0.241 -16° 27' 56.90" 1.000E-01 0.500 F -0.128 0.079 19.0 V 0.70 0.23 o 691 0.50 Yes Yes
2015UY66 O C 2015-11-06.52617 1.000E-05 05:58:47.800 1.500E-01 0.500 F -0.077 -0.025 -15° 56' 20.70" 1.000E-01 0.500 F -0.067 0.016 19.5 V 0.70 -0.26 o 691 0.06 Yes Yes
2015UY66 O C 2015-11-06.52836 1.000E-05 05:58:48.540 1.500E-01 0.500 F -0.077 -0.142 -15° 56' 29.20" 1.000E-01 0.500 F -0.067 -0.019 19.7 V 0.70 -0.06 o 691 0.30 Yes Yes
2015UY66 O C 2015-11-06.53032 1.000E-05 05:58:49.200 1.500E-01 0.500 F -0.077 -0.282 -15° 56' 37.00" 1.000E-01 0.500 F -0.067 -0.243 19.5 V 0.70 -0.26 o 691 0.76 Yes Yes
2015PR O C 2015-11-07.26213 1.000E-05 00:54:17.450 1.500E-01 0.500 F -0.241 0.007 -09° 48' 08.70" 1.000E-01 0.500 F 0.120 -0.240 19.9 V 0.70 -0.18 o 691 0.48 Yes Yes
2015MU59 O C 2015-11-07.26213 1.000E-05 00:55:36.820 1.500E-01 0.500 F -0.275 -0.388 -10° 09' 03.60" 1.000E-01 0.500 F 0.056 -0.266 20.9 V 0.70 0.29 o 691 0.95 Yes Yes
2015PR O C 2015-11-07.26652 1.000E-05 00:54:17.820 1.500E-01 0.500 F -0.241 -0.083 -09° 48' 05.20" 1.000E-01 0.500 F 0.120 -0.036 19.8 V 0.70 -0.28 o 691 0.18 Yes Yes
2015MU59 O C 2015-11-07.26652 1.000E-05 00:55:37.030 1.500E-01 0.500 F -0.275 0.037 -10° 09' 00.10" 1.000E-01 0.500 F 0.056 0.082 20.6 V 0.70 -0.01 o 691 0.18 Yes Yes
2015PR O C 2015-11-07.27114 1.000E-05 00:54:18.220 1.500E-01 0.500 F -0.241 -0.026 -09° 48' 02.00" 1.000E-01 0.500 F 0.120 -0.308 19.9 V 0.70 -0.18 o 691 0.62 Yes Yes
2015MU59 O C 2015-11-07.27114 1.000E-05 00:55:37.230 1.500E-01 0.500 F -0.275 0.170 -10° 08' 57.30" 1.000E-01 0.500 F 0.056 -0.438 20.5 V 0.70 -0.11 o 691 0.94 Yes Yes
2015VJ65 O C 2015-11-07.28961 1.000E-05 00:44:05.910 1.500E-01 0.500 F -0.210 0.202 +16° 41' 00.80" 1.000E-01 0.500 F 0.387 -0.172 20.6 V 0.70 -0.10 o 691 0.53 Yes Yes
2015VB65 O C 2015-11-07.28961 1.000E-05 00:41:52.760 1.500E-01 0.500 F -0.203 -0.508 +17° 30' 06.20" 1.000E-01 0.500 F 0.224 0.061 19.8 V 0.70 -0.43 o 691 1.03 Yes Yes
2015VJ65 O C 2015-11-07.29163 1.000E-05 00:44:06.130 1.500E-01 0.500 F -0.210 -0.351 +16° 40' 55.70" 1.000E-01 0.500 F 0.387 -0.110 20.7 V 0.70 0.00 o 691 0.74 Yes Yes
2015VB65 O C 2015-11-07.29163 1.000E-05 00:41:52.700 1.500E-01 0.500 F -0.203 -0.079 +17° 29' 59.60" 1.000E-01 0.500 F 0.224 -0.621 20.1 V 0.70 -0.13 o 691 1.26 Yes Yes
2015VJ65 O C 2015-11-07.29343 1.000E-05 00:44:06.350 1.500E-01 0.500 F -0.210 -0.502 +16° 40' 51.40" 1.000E-01 0.500 F 0.387 0.192 20.6 V 0.70 -0.10 o 691 1.08 Yes Yes
2015VB65 O C 2015-11-07.29343 1.000E-05 00:41:52.620 1.500E-01 0.500 F -0.203 -0.080 +17° 29' 55.00" 1.000E-01 0.500 F 0.224 0.054 20.1 V 0.70 -0.13 o 691 0.20 Yes Yes
2002VV17 O C 2015-11-07.38556 1.000E-05 03:47:01.530 1.500E-01 0.500 F -0.277 -0.104 +15° 10' 54.80" 1.000E-01 0.500 F 0.247 -0.087 17.7 V 0.70 0.17 o 691 0.27 Yes Yes
2002VV17 O C 2015-11-07.38798 1.000E-05 03:47:00.710 1.500E-01 0.500 F -0.277 -0.156 +15° 10' 45.80" 1.000E-01 0.500 F 0.247 -0.090 17.7 V 0.70 0.17 o 691 0.37 Yes Yes
2002VV17 O C 2015-11-07.39040 1.000E-05 03:46:59.890 1.500E-01 0.500 F -0.277 -0.211 +15° 10' 36.80" 1.000E-01 0.500 F 0.247 -0.089 17.7 V 0.70 0.17 o 691 0.46 Yes Yes
2009FD O C 2015-11-08.09696 1.000E-05 23:56:37.160 1.500E-01 0.500 F -0.119 -0.074 +18° 56' 59.70" 1.000E-01 0.500 F 0.210 -0.286 19.1 V 0.70 0.21 o 691 0.59 Yes Yes
2009FD O C 2015-11-08.09853 1.000E-05 23:56:38.010 1.500E-01 0.500 F -0.119 -0.250 +18° 56' 59.30" 1.000E-01 0.500 F 0.210 -0.186 19.4 V 0.70 0.51 o 691 0.63 Yes Yes
2009FD O C 2015-11-08.10009 1.000E-05 23:56:38.880 1.500E-01 0.500 F -0.119 -0.058 +18° 56' 58.90" 1.000E-01 0.500 F 0.210 -0.088 19.4 V 0.70 0.51 o 691 0.21 Yes Yes
2015VJ65 O C 2015-11-08.10575 1.000E-05 00:46:02.120 1.500E-01 0.500 F -0.210 -0.384 +16° 06' 25.90" 1.000E-01 0.500 F 0.387 0.084 21.1 V 0.70 0.40 o 691 0.79 Yes Yes
2015VJ65 O C 2015-11-08.10801 1.000E-05 00:46:02.470 1.500E-01 0.500 F -0.210 0.355 +16° 06' 20.20" 1.000E-01 0.500 F 0.387 0.082 20.7 V 0.70 0.00 o 691 0.73 Yes Yes
2015VJ65 O C 2015-11-08.11026 1.000E-05 00:46:02.760 1.500E-01 0.500 F -0.210 0.251 +16° 06' 13.80" 1.000E-01 0.500 F 0.387 -0.644 20.5 V 0.70 -0.20 o 691 1.39 Yes Yes
2015VW1 O C 2015-11-08.24686 1.000E-05 01:36:23.610 1.500E-01 0.500 F -0.201 -0.055 -22° 47' 43.60" 1.000E-01 0.500 F 0.205 0.320 21.4 V 0.70 0.44 o 691 0.65 Yes Yes
2015VW1 O C 2015-11-08.25009 1.000E-05 01:36:23.890 1.500E-01 0.500 F -0.201 -0.333 -22° 47' 40.80" 1.000E-01 0.500 F 0.205 0.556 20.7 V 0.70 -0.26 o 691 1.30 Yes Yes
2015VW1 O C 2015-11-08.25631 1.000E-05 01:36:24.480 1.500E-01 0.500 F -0.201 -0.165 -22° 47' 36.30" 1.000E-01 0.500 F 0.205 0.107 20.6 V 0.70 -0.36 o 691 0.39 Yes Yes
1998SG36 O C 2015-11-08.26268 1.000E-05 01:53:54.040 1.500E-01 0.500 F -0.250 -0.131 -09° 50' 53.60" 1.000E-01 0.500 F 0.214 -0.085 19.1 V 0.70 0.22 o 691 0.31 Yes Yes
2007VQ4 O C 2015-11-08.26268 1.000E-05 01:50:20.570 1.500E-01 0.500 F -0.365 0.069 -09° 55' 11.60" 1.000E-01 0.500 F 0.157 0.116 21.0 V 0.70 0.23 o 691 0.27 Yes Yes
2015TW144 O C 2015-11-08.26268 1.000E-05 01:51:24.640 1.500E-01 0.500 F -0.310 0.019 -10° 13' 32.30" 1.000E-01 0.500 F 0.163 -0.088 19.4 V 0.70 0.12 o 691 0.18 Yes Yes
2007VQ4 O C 2015-11-08.26567 1.000E-05 01:50:20.330 1.500E-01 0.500 F -0.365 -0.379 -09° 55' 11.20" 1.000E-01 0.500 F 0.157 0.209 20.7 V 0.70 -0.07 o 691 0.87 Yes Yes
2015TW144 O C 2015-11-08.26567 1.000E-05 01:51:24.700 1.500E-01 0.500 F -0.310 0.008 -10° 13' 38.50" 1.000E-01 0.500 F 0.163 0.020 19.3 V 0.70 0.02 o 691 0.04 Yes Yes
1998SG36 O C 2015-11-08.26567 1.000E-05 01:53:53.830 1.500E-01 0.500 F -0.250 -0.107 -09° 50' 55.70" 1.000E-01 0.500 F 0.214 -0.117 19.1 V 0.70 0.22 o 691 0.32 Yes Yes
2015TW144 O C 2015-11-08.26890 1.000E-05 01:51:24.760 1.500E-01 0.500 F -0.310 -0.076 -10° 13' 45.50" 1.000E-01 0.500 F 0.163 -0.168 19.3 V 0.70 0.02 o 691 0.37 Yes Yes
1998SG36 O C 2015-11-08.26890 1.000E-05 01:53:53.510 1.500E-01 0.500 F -0.250 -1.458 -09° 50' 57.40" 1.000E-01 0.500 F 0.214 0.417 18.7 V 0.70 -0.18 o 691 3.04 Yes Yes
2007VQ4 O C 2015-11-08.26890 1.000E-05 01:50:20.100 1.500E-01 0.500 F -0.365 -0.431 -09° 55' 11.10" 1.000E-01 0.500 F 0.157 -0.023 20.6 V 0.70 -0.17 o 691 0.86 Yes Yes
2015PS O C 2015-11-08.35093 1.000E-05 00:10:15.550 1.500E-01 0.500 F -0.071 -0.006 +30° 54' 14.10" 1.000E-01 0.500 F 0.207 0.024 19.8 V 0.70 0.19 o 691 0.05 Yes Yes
2015PS O C 2015-11-08.35342 1.000E-05 00:10:16.040 1.500E-01 0.500 F -0.071 -0.020 +30° 54' 15.00" 1.000E-01 0.500 F 0.207 0.040 19.9 V 0.70 0.29 o 691 0.09 Yes Yes
2015PS O C 2015-11-08.35613 1.000E-05 00:10:16.550 1.500E-01 0.500 F -0.071 -0.343 +30° 54' 15.60" 1.000E-01 0.500 F 0.207 -0.319 21.0 V 0.70 1.39 o 691 0.94 Yes Yes
2009FD O C 2015-11-09.10793 1.000E-05 00:05:35.330 1.500E-01 0.500 F -0.120 -0.377 +18° 50' 12.50" 1.000E-01 0.500 F 0.138 -0.361 19.0 V 0.70 -0.06 o 691 1.05 Yes Yes
2009FD O C 2015-11-09.10995 1.000E-05 00:05:36.290 1.500E-01 0.500 F -0.120 -0.081 +18° 50' 12.00" 1.000E-01 0.500 F 0.138 -0.148 19.0 V 0.70 -0.06 o 691 0.34 Yes Yes
2009FD O C 2015-11-09.11175 1.000E-05 00:05:37.120 1.500E-01 0.500 F -0.120 -0.171 +18° 50' 11.50" 1.000E-01 0.500 F 0.138 -0.010 18.9 V 0.70 -0.16 o 691 0.34 Yes Yes
2015VJ65 O C 2015-11-09.16519 1.000E-05 00:48:33.510 1.500E-01 0.500 F -0.171 -0.256 +15° 21' 15.20" 1.000E-01 0.500 F 0.407 -0.011 20.7 V 0.70 0.00 o 691 0.52 Yes Yes
2015VJ65 O C 2015-11-09.16721 1.000E-05 00:48:33.800 1.500E-01 0.500 F -0.171 0.020 +15° 21' 10.10" 1.000E-01 0.500 F 0.407 0.052 21.0 V 0.70 0.30 o 691 0.11 Yes Yes
2015VJ65 O C 2015-11-09.16901 1.000E-05 00:48:34.030 1.500E-01 0.500 F -0.171 -0.144 +15° 21' 05.10" 1.000E-01 0.500 F 0.407 -0.347 20.5 V 0.70 -0.20 o 691 0.76 Yes Yes
2015TW144 O C 2015-11-09.29633 1.000E-05 01:51:59.630 1.500E-01 0.500 F -0.303 -0.007 -10° 49' 36.90" 1.000E-01 0.500 F 0.169 0.015 19.5 V 0.70 0.20 o 691 0.03 Yes Yes
1998SG36 O C 2015-11-09.29633 1.000E-05 01:52:44.010 1.500E-01 0.500 F -0.310 -0.187 -10° 02' 34.50" 1.000E-01 0.500 F 0.163 0.186 19.1 V 0.70 0.19 o 691 0.53 Yes Yes
2015TW144 O C 2015-11-09.29956 1.000E-05 01:51:59.710 1.500E-01 0.500 F -0.303 0.070 -10° 49' 43.70" 1.000E-01 0.500 F 0.169 -0.106 19.2 V 0.70 -0.10 o 691 0.25 Yes Yes
1998SG36 O C 2015-11-09.29956 1.000E-05 01:52:43.790 1.500E-01 0.500 F -0.310 -0.127 -10° 02' 36.80" 1.000E-01 0.500 F 0.163 0.027 19.1 V 0.70 0.19 o 691 0.26 Yes Yes
2015TW144 O C 2015-11-09.30256 1.000E-05 01:51:59.770 1.500E-01 0.500 F -0.303 -0.072 -10° 49' 49.80" 1.000E-01 0.500 F 0.169 -0.005 19.3 V 0.70 0.00 o 691 0.14 Yes Yes
1998SG36 O C 2015-11-09.30256 1.000E-05 01:52:43.580 1.500E-01 0.500 F -0.310 -0.155 -10° 02' 38.80" 1.000E-01 0.500 F 0.163 0.016 19.0 V 0.70 0.09 o 691 0.31 Yes Yes
2015TY178 O C 2015-11-09.34552 1.000E-05 02:38:04.620 1.500E-01 0.500 F -0.241 0.022 -08° 53' 06.60" 1.000E-01 0.500 F 0.169 0.050 20.3 V 0.70 -0.13 o 691 0.11 Yes Yes
2015TY178 O C 2015-11-09.34875 1.000E-05 02:38:04.580 1.500E-01 0.500 F -0.241 0.141 -08° 53' 14.70" 1.000E-01 0.500 F 0.169 0.026 20.1 V 0.70 -0.33 o 691 0.29 Yes Yes
2015TY178 O C 2015-11-09.35175 1.000E-05 02:38:04.520 1.500E-01 0.500 F -0.241 -0.091 -08° 53' 22.30" 1.000E-01 0.500 F 0.169 -0.075 20.5 V 0.70 0.07 o 691 0.24 Yes Yes
2002RQ25 O C 2015-11-09.49143 1.000E-05 03:35:20.330 1.500E-01 0.500 F -0.049 0.142 +28° 38' 54.30" 1.000E-01 0.500 F 0.212 0.061 20.3 V 0.70 -0.07 o 691 0.31 Yes Yes
2011CG2 O C 2015-11-09.49143 1.000E-05 03:38:48.760 1.500E-01 0.500 F -0.049 -0.115 +28° 38' 45.50" 1.000E-01 0.500 F 0.212 -0.297 20.0 V 0.70 -0.67 o 691 0.64 Yes Yes
2002RQ25 O C 2015-11-09.49466 1.000E-05 03:35:19.720 1.500E-01 0.500 F -0.049 -0.037 +28° 38' 53.80" 1.000E-01 0.500 F 0.212 0.212 20.5 V 0.70 0.13 o 691 0.43 Yes Yes
2011CG2 O C 2015-11-09.49466 1.000E-05 03:38:48.290 1.500E-01 0.500 F -0.049 -0.054 +28° 38' 44.00" 1.000E-01 0.500 F 0.212 -0.162 20.4 V 0.70 -0.27 o 691 0.34 Yes Yes
2002RQ25 O C 2015-11-09.49765 1.000E-05 03:35:19.150 1.500E-01 0.500 F -0.049 -0.279 +28° 38' 52.90" 1.000E-01 0.500 F 0.212 -0.084 20.3 V 0.70 -0.07 o 691 0.58 Yes Yes
2011CG2 O C 2015-11-09.49765 1.000E-05 03:38:47.840 1.500E-01 0.500 F -0.049 -0.200 +28° 38' 42.40" 1.000E-01 0.500 F 0.212 -0.247 20.0 V 0.70 -0.67 o 691 0.64 Yes Yes
2015MT96 O C H 2015-11-11.14853 1.000E-05 21:27:42.640 1.500E-01 0.500 F -0.062 0.323 -24° 35' 08.80" 1.000E-01 0.500 F 0.567 0.378 20.2 V 0.70 0.27 o 691 1.01 Yes Yes
2015MT96 O C H 2015-11-11.15035 1.000E-05 21:27:43.280 1.500E-01 0.500 F -0.062 -0.229 -24° 35' 08.60" 1.000E-01 0.500 F 0.567 -0.001 19.9 V 0.70 -0.03 o 691 0.47 Yes Yes

[1-200] [201-400] [401-600] [601-800] [801-1000] [1001-1200] [1201-1400] [1401-1600] [1601-1800] [1801-2000] [2001-2200] [2201-2400] [2401-2600] [2601-2800] [2801-3000] [3001-3200] [3201-3400] [3401-3600] [3601-3800] [3801-4000] [4001-4200] [4201-4400] [4401-4600] [4601-4800] [4801-5000] [5001-5200] [5201-5400] [5401-5600] [5601-5800] [5801-6000] [6001-6200] [6201-6400] [6401-6600] [6601-6800] [6801-7000] [7001-7200] [7201-7400] [7401-7600] [7601-7800] [7801-8000] [8001-8200] [8201-8400] [8401-8600] [8601-8800] [8801-9000] [9001-9200] [9201-9400] [9401-9600] [9601-9800] [9801-10000] [10001-10200] [10201-10400] [10401-10600] [10601-10800] [10801-11000] [11001-11200] [11201-11400] [11401-11600] [11601-11800] [11801-12000] [12001-12200] [12201-12400] [12401-12600] [12601-12800] [12801-13000] [13001-13200] [13201-13400] [13401-13600] [13601-13800] [13801-14000] [14001-14200] [14201-14400] [14401-14600] [14601-14800] [14801-15000] [15001-15200] [15201-15400] [15401-15600] [15601-15800] [15801-16000] [16001-16200] [16201-16400] [16401-16600] [16601-16800] [16801-17000] [17001-17200] [17201-17400] [17401-17600] [17601-17800] [17801-18000] [18001-18200] [18201-18400] [18401-18600] [18601-18800] [18801-19000] [19001-19200] [19201-19400] [19401-19600] [19601-19800] [19801-20000] [20001-20200] [20201-20400] [20401-20600] [20601-20800] [20801-21000] [21001-21200] [21201-21400] [21401-21600] [21601-21800] [21801-22000] [22001-22200] [22201-22400] [22401-22600] [22601-22800] [22801-23000] [23001-23200] [23201-23400] [23401-23600] [23601-23800] [23801-24000] [24001-24200] [24201-24400] [24401-24600] [24601-24800] [24801-25000] [25001-25200] [25201-25400] [25401-25600] [25601-25800] [25801-26000] [26001-26200] [26201-26400] [26401-26600] [26601-26800] [26801-27000] [27001-27200] [27201-27400] [27401-27600] [27601-27800] [27801-28000] [28001-28200] [28201-28400] [28401-28600] [28601-28800] [28801-29000] [29001-29200] [29201-29400] [29401-29600] [29601-29800] [29801-30000] [30001-30200] [30201-30400] [30401-30600] [30601-30800] [30801-31000] [31001-31200] [31201-31400] [31401-31600] [31601-31800] [31801-32000] [32001-32200] [32201-32400] [32401-32600] [32601-32800] [32801-33000] [33001-33200] [33201-33400] [33401-33600] [33601-33800] [33801-34000] [34001-34200] [34201-34400] [34401-34600] [34601-34800] [34801-35000] [35001-35200] [35201-35400] [35401-35600] [35601-35800] [35801-36000] [36001-36200] [36201-36400] [36401-36600] [36601-36800] [36801-37000] [37001-37200] [37201-37400] [37401-37600] [37601-37800] [37801-38000] [38001-38200] [38201-38400] [38401-38600] [38601-38800] [38801-39000] [39001-39200] [39201-39400] [39401-39600] [39601-39800] [39801-40000] [40001-40200] [40201-40400] [40401-40600] [40601-40800] [40801-41000] [41001-41200] [41201-41400] [41401-41600] [41601-41800] [41801-42000] [42001-42200] [42201-42400] [42401-42600] [42601-42800] [42801-43000] [43001-43200] [43201-43400] [43401-43600] [43601-43800] [43801-44000] [44001-44200] [44201-44400] [44401-44600] [44601-44800] [44801-45000] [45001-45200] [45201-45400] [45401-45600] [45601-45800] [45801-46000] [46001-46200] [46201-46400] [46401-46600] [46601-46800] [46801-47000] [47001-47200] [47201-47400] [47401-47600] [47601-47800] [47801-48000] [48001-48200] [48201-48400] [48401-48600] [48601-48800] [48801-49000] [49001-49200] [49201-49400] [49401-49600] [49601-49800] [49801-50000] [50001-50200] [50201-50388]